Time;durP1;ratioP1;P1;durP2;ratioP2;P2;SDS_P1;SDS_P2;PMS_P1;PMS_P2;Temp;Humidity;BMP_temperature;BMP_pressure;BME280_temperature;BME280_humidity;BME280_pressure;Samples;Min_cycle;Max_cycle;Signal;HPM_P1;HPM_P2
2022/04/16 00:01:57;;;;;;;21.60;10.68;;;6.30;87.10;;;;;;5031017;28;20096;-73
2022/04/16 00:04:23;;;;;;;20.50;9.13;;;6.20;87.10;;;;;;5030771;28;20393;-72
2022/04/16 00:06:48;;;;;;;17.55;8.43;;;6.10;87.20;;;;;;5021331;28;20026;-72
2022/04/16 00:09:14;;;;;;;20.80;9.35;;;6.00;87.30;;;;;;5030096;28;20037;-72
2022/04/16 00:11:40;;;;;;;20.63;9.35;;;5.90;87.40;;;;;;5027252;28;20068;-73
2022/04/16 00:14:05;;;;;;;16.33;7.55;;;5.80;87.30;;;;;;5020497;28;20172;-72
2022/04/16 00:16:32;;;;;;;15.82;8.25;;;5.70;87.10;;;;;;5031079;28;20377;-72
2022/04/16 00:18:57;;;;;;;18.00;8.25;;;5.60;86.90;;;;;;5031270;28;20468;-73
2022/04/16 00:21:24;;;;;;;15.43;7.88;;;5.60;86.70;;;;;;5030151;28;20079;-72
2022/04/16 00:23:51;;;;;;;15.68;8.55;;;5.50;86.70;;;;;;5021734;28;20034;-72
2022/04/16 00:26:17;;;;;;;13.95;7.15;;;5.40;87.00;;;;;;5031461;28;20036;-72
2022/04/16 00:28:43;;;;;;;16.83;7.30;;;5.30;86.80;;;;;;5030805;28;20029;-72
2022/04/16 00:31:08;;;;;;;17.25;7.20;;;5.30;86.60;;;;;;5029106;28;20033;-72
2022/04/16 00:33:34;;;;;;;16.30;7.35;;;5.20;86.60;;;;;;5030213;28;20034;-72
2022/04/16 00:36:02;;;;;;;14.15;7.43;;;5.20;86.80;;;;;;5030072;28;20036;-72
2022/04/16 00:38:28;;;;;;;19.92;7.45;;;5.10;86.90;;;;;;5030526;28;20073;-72
2022/04/16 00:40:55;;;;;;;11.15;7.00;;;5.10;87.00;;;;;;5020765;28;20559;-72
2022/04/16 00:43:27;;;;;;;14.00;6.93;;;5.00;87.20;;;;;;5030539;28;20046;-72
2022/04/16 00:45:53;;;;;;;13.82;6.57;;;5.00;87.10;;;;;;5030525;28;20629;-72
2022/04/16 00:48:20;;;;;;;13.32;6.28;;;4.90;87.10;;;;;;5029260;28;20025;-72
2022/04/16 00:50:48;;;;;;;15.75;6.72;;;4.80;87.20;;;;;;5029796;28;20425;-72
2022/04/16 00:53:14;;;;;;;12.82;5.88;;;4.70;87.30;;;;;;5030739;28;20383;-72
2022/04/16 00:55:39;;;;;;;17.95;6.95;;;4.70;87.60;;;;;;5029752;28;20034;-72
2022/04/16 00:58:05;;;;;;;13.50;6.13;;;4.60;87.50;;;;;;5022127;28;20044;-72
2022/04/16 01:00:30;;;;;;;11.23;5.47;;;4.50;87.50;;;;;;5030399;28;20040;-72
2022/04/16 01:02:57;;;;;;;13.50;5.57;;;4.40;87.40;;;;;;5029854;28;20075;-72
2022/04/16 01:05:23;;;;;;;13.55;4.82;;;4.30;87.40;;;;;;5025249;28;20315;-71
2022/04/16 01:07:53;;;;;;;9.80;4.00;;;4.30;86.50;;;;;;5026404;28;20131;-72
2022/04/16 01:10:19;;;;;;;7.40;4.00;;;4.30;85.90;;;;;;5030546;28;20448;-72
2022/04/16 01:12:45;;;;;;;9.95;4.00;;;4.20;85.40;;;;;;5016940;28;20104;-72
2022/04/16 01:15:13;;;;;;;7.30;3.25;;;4.20;85.10;;;;;;5029424;28;20108;-71
2022/04/16 01:17:39;;;;;;;6.57;2.70;;;4.10;84.80;;;;;;5030248;28;20026;-73
2022/04/16 01:20:05;;;;;;;6.80;2.65;;;4.10;84.50;;;;;;5030343;28;20033;-72
2022/04/16 01:22:31;;;;;;;7.50;2.88;;;4.00;84.40;;;;;;5027191;28;20167;-72
2022/04/16 01:24:56;;;;;;;4.32;2.30;;;3.90;84.30;;;;;;5030320;28;20529;-71
2022/04/16 01:27:22;;;;;;;5.82;2.47;;;3.80;84.10;;;;;;5028345;28;20042;-72
2022/04/16 01:29:48;;;;;;;8.52;2.63;;;3.70;84.10;;;;;;5030123;28;20065;-71
2022/04/16 01:32:13;;;;;;;4.13;1.90;;;3.80;83.60;;;;;;5021397;28;20052;-72
2022/04/16 01:34:40;;;;;;;3.28;1.85;;;3.70;83.50;;;;;;5029828;28;20456;-72
2022/04/16 01:37:05;;;;;;;6.20;2.10;;;3.60;83.50;;;;;;5025175;28;20025;-71
2022/04/16 01:39:32;;;;;;;4.93;2.20;;;3.60;83.40;;;;;;5026790;28;20386;-72
2022/04/16 01:41:58;;;;;;;3.67;1.77;;;3.60;83.30;;;;;;5030451;28;20388;-72
2022/04/16 01:44:24;;;;;;;5.65;2.28;;;3.60;83.00;;;;;;5030041;28;20120;-71
2022/04/16 01:46:50;;;;;;;2.72;1.73;;;3.50;82.90;;;;;;5032247;28;20029;-72
2022/04/16 01:49:15;;;;;;;3.30;1.67;;;3.60;82.80;;;;;;5033022;28;20037;-71
2022/04/16 01:51:41;;;;;;;7.20;1.95;;;3.50;82.80;;;;;;5033259;28;20068;-71
2022/04/16 01:54:06;;;;;;;6.57;2.03;;;3.50;83.20;;;;;;5033673;28;20025;-71
2022/04/16 01:56:32;;;;;;;6.80;1.92;;;3.40;83.40;;;;;;5031620;28;20038;-72
2022/04/16 01:58:57;;;;;;;3.42;1.98;;;3.30;83.70;;;;;;5033338;28;20385;-71
2022/04/16 02:01:23;;;;;;;5.43;1.92;;;3.30;83.90;;;;;;5033113;28;20029;-74
2022/04/16 02:03:48;;;;;;;5.68;1.80;;;3.30;84.20;;;;;;5031788;28;20133;-71
2022/04/16 02:06:17;;;;;;;4.30;2.20;;;3.30;84.40;;;;;;5032231;28;20384;-71
2022/04/16 02:08:43;;;;;;;4.55;2.15;;;3.20;84.40;;;;;;5033198;28;20157;-72
2022/04/16 02:11:08;;;;;;;5.32;2.05;;;3.10;84.70;;;;;;5020446;28;20545;-71
2022/04/16 02:13:35;;;;;;;5.45;2.10;;;3.10;85.00;;;;;;5022817;28;20076;-71
2022/04/16 02:16:01;;;;;;;5.00;1.63;;;2.90;85.00;;;;;;5024791;28;20025;-72
2022/04/16 02:18:27;;;;;;;5.45;1.67;;;2.90;85.40;;;;;;5033129;28;20370;-72
2022/04/16 02:20:53;;;;;;;3.08;1.83;;;2.80;85.50;;;;;;5032665;28;20099;-72
2022/04/16 02:23:18;;;;;;;4.18;2.00;;;2.70;85.80;;;;;;5024984;28;20544;-71
2022/04/16 02:25:44;;;;;;;4.95;2.20;;;2.60;86.10;;;;;;5032866;28;20037;-71
2022/04/16 02:28:10;;;;;;;5.53;1.85;;;2.60;86.30;;;;;;5031759;28;20120;-74
2022/04/16 02:30:37;;;;;;;5.45;1.88;;;2.60;86.30;;;;;;5031953;28;20037;-72
2022/04/16 02:33:03;;;;;;;3.05;1.70;;;2.50;86.40;;;;;;5033007;28;20030;-71
2022/04/16 02:35:29;;;;;;;4.28;1.77;;;2.50;86.30;;;;;;5031988;28;20140;-71
2022/04/16 02:37:55;;;;;;;5.78;2.17;;;2.40;86.50;;;;;;5032246;28;20120;-71
2022/04/16 02:40:20;;;;;;;3.10;1.65;;;2.50;86.60;;;;;;5024282;28;20472;-71
2022/04/16 02:42:46;;;;;;;6.10;1.73;;;2.50;86.60;;;;;;5032274;28;20065;-71
2022/04/16 02:47:58;;;;;;;5.57;1.77;;;2.30;87.00;;;;;;5019988;28;20104;-72
2022/04/16 02:50:25;;;;;;;3.55;1.88;;;2.30;87.30;;;;;;5032196;28;20022;-72
2022/04/16 02:52:55;;;;;;;4.45;2.05;;;2.20;87.30;;;;;;5031064;28;20041;-72
2022/04/16 02:55:22;;;;;;;4.50;1.90;;;2.30;87.70;;;;;;5032352;28;20021;-71
2022/04/16 02:57:49;;;;;;;4.55;2.00;;;2.20;87.60;;;;;;5030098;28;20094;-71
2022/04/16 03:00:15;;;;;;;8.07;1.88;;;2.20;87.60;;;;;;5033143;28;20028;-73
2022/04/16 03:02:41;;;;;;;5.20;1.77;;;2.20;88.00;;;;;;5032848;28;20091;-72
2022/04/16 03:05:08;;;;;;;4.93;1.73;;;2.10;87.80;;;;;;5028565;28;20033;-73
2022/04/16 03:07:37;;;;;;;4.75;1.95;;;2.10;88.00;;;;;;5032123;28;20525;-72
2022/04/16 03:10:04;;;;;;;5.55;1.95;;;2.00;88.10;;;;;;5019600;28;20474;-72
2022/04/16 03:12:48;;;;;;;3.83;2.25;;;2.00;88.30;;;;;;5031716;28;20037;-72
2022/04/16 03:18:00;;;;;;;5.63;1.88;;;1.90;88.40;;;;;;5032087;28;20075;-72
2022/04/16 03:20:27;;;;;;;4.03;1.75;;;1.80;88.60;;;;;;5031210;28;20105;-73
2022/04/16 03:22:53;;;;;;;4.85;2.28;;;1.90;88.90;;;;;;5029085;28;20052;-72
2022/04/16 03:25:19;;;;;;;9.20;2.35;;;1.80;88.90;;;;;;5032075;28;20061;-72
2022/04/16 03:27:45;;;;;;;6.40;1.80;;;1.80;88.90;;;;;;5030494;28;20064;-72
2022/04/16 03:30:11;;;;;;;3.40;1.67;;;1.70;89.00;;;;;;5030346;28;20370;-72
2022/04/16 03:32:40;;;;;;;4.45;1.80;;;1.70;89.10;;;;;;5031618;28;20033;-72
2022/04/16 03:35:07;;;;;;;5.40;2.17;;;1.70;89.20;;;;;;5031264;28;20022;-72
2022/04/16 03:37:34;;;;;;;9.55;2.05;;;1.60;89.40;;;;;;5019098;28;20026;-72
2022/04/16 03:39:59;;;;;;;6.72;2.00;;;1.60;89.50;;;;;;5031620;28;20033;-72
2022/04/16 03:42:25;;;;;;;5.07;1.90;;;1.50;89.60;;;;;;5031801;28;20029;-72
2022/04/16 03:44:50;;;;;;;3.05;1.75;;;1.40;89.80;;;;;;5031316;28;20907;-72
2022/04/16 03:47:16;;;;;;;15.10;1.95;;;1.30;90.00;;;;;;5030585;28;20037;-72
2022/04/16 03:49:41;;;;;;;4.75;2.13;;;1.30;90.20;;;;;;5030870;28;20369;-72
2022/04/16 03:52:07;;;;;;;3.78;1.98;;;1.30;90.30;;;;;;5031448;28;20041;-72
2022/04/16 04:00:01;;;;;;;7.07;2.17;;;1.00;90.60;;;;;;5031660;28;20063;-73
2022/04/16 04:02:30;;;;;;;6.57;2.45;;;1.00;90.80;;;;;;5030619;28;20041;-72
2022/04/16 04:04:57;;;;;;;8.20;2.38;;;0.90;90.90;;;;;;5025259;28;20040;-72
2022/04/16 04:07:23;;;;;;;6.68;2.20;;;0.90;91.10;;;;;;5029449;28;20343;-72
2022/04/16 04:09:49;;;;;;;8.40;2.60;;;0.80;91.10;;;;;;5019150;28;20112;-72
2022/04/16 04:12:16;;;;;;;6.95;2.70;;;0.90;91.40;;;;;;5025010;28;20037;-72
2022/04/16 04:14:43;;;;;;;4.05;2.20;;;0.80;91.30;;;;;;5023485;28;20036;-72
2022/04/16 04:17:09;;;;;;;5.90;2.25;;;0.70;91.40;;;;;;5031118;28;20400;-72
2022/04/16 04:19:37;;;;;;;7.03;2.65;;;0.80;91.60;;;;;;5030868;28;20025;-68
2022/04/16 04:22:03;;;;;;;7.05;2.53;;;0.80;91.90;;;;;;5021921;28;20033;-68
2022/04/16 04:24:29;;;;;;;6.15;2.67;;;0.70;91.70;;;;;;5029902;28;20077;-67
2022/04/16 04:26:59;;;;;;;6.93;3.00;;;0.70;91.90;;;;;;5031053;28;20079;-68
2022/04/16 04:29:26;;;;;;;8.82;2.95;;;0.70;92.10;;;;;;5029170;28;20507;-68
2022/04/16 04:31:52;;;;;;;9.90;3.00;;;0.60;91.90;;;;;;5030946;28;20045;-69
2022/04/16 04:34:18;;;;;;;6.72;3.05;;;0.60;92.10;;;;;;5030632;28;20490;-69
2022/04/16 04:36:44;;;;;;;8.18;3.30;;;0.60;92.30;;;;;;5029551;28;20056;-69
2022/04/16 04:39:09;;;;;;;6.57;3.13;;;0.60;92.30;;;;;;5028173;28;20025;-68
2022/04/16 04:41:35;;;;;;;4.93;2.95;;;0.50;92.30;;;;;;5030811;28;20440;-68
2022/04/16 04:44:01;;;;;;;10.93;3.88;;;0.60;92.50;;;;;;5030563;28;20053;-68
2022/04/16 04:46:26;;;;;;;8.85;2.90;;;0.60;92.40;;;;;;5027125;28;20025;-68
2022/04/16 04:48:52;;;;;;;8.27;3.63;;;0.60;92.50;;;;;;5026670;28;20037;-69
2022/04/16 04:51:17;;;;;;;9.68;3.50;;;0.60;92.50;;;;;;5030225;28;20373;-69
2022/04/16 04:53:43;;;;;;;13.48;3.85;;;0.70;92.70;;;;;;5030156;28;20037;-69
2022/04/16 04:56:08;;;;;;;11.13;4.20;;;0.80;92.70;;;;;;5021587;28;20384;-68
2022/04/16 04:58:34;;;;;;;7.88;4.07;;;0.90;92.70;;;;;;5030549;28;20441;-68
2022/04/16 05:00:59;;;;;;;9.95;4.35;;;0.90;92.60;;;;;;5030358;28;20037;-67
2022/04/16 05:03:25;;;;;;;13.18;4.55;;;0.90;92.70;;;;;;5030278;28;20037;-68
2022/04/16 05:05:50;;;;;;;10.60;4.85;;;1.00;92.70;;;;;;5030736;28;20033;-67
2022/04/16 05:08:16;;;;;;;8.00;4.65;;;1.00;92.60;;;;;;5024168;28;20170;-67
2022/04/16 05:10:41;;;;;;;8.05;4.07;;;1.10;92.70;;;;;;5030316;28;20461;-70
2022/04/16 05:13:07;;;;;;;10.55;4.78;;;1.10;92.70;;;;;;5026372;28;20143;-67
2022/04/16 05:15:33;;;;;;;6.70;4.43;;;1.20;92.60;;;;;;5030428;28;20421;-68
2022/04/16 05:17:58;;;;;;;11.13;5.03;;;1.30;92.60;;;;;;5030486;28;20469;-67
2022/04/16 05:20:24;;;;;;;11.10;4.53;;;1.30;92.50;;;;;;5023854;28;20026;-67
2022/04/16 05:22:49;;;;;;;13.55;4.57;;;1.40;92.70;;;;;;5032296;28;20388;-68
2022/04/16 05:25:15;;;;;;;10.27;4.78;;;1.50;92.50;;;;;;5034154;28;20258;-67
2022/04/16 05:27:40;;;;;;;11.57;4.30;;;1.60;92.50;;;;;;5033727;28;20033;-68
2022/04/16 05:30:07;;;;;;;8.00;4.47;;;1.60;92.30;;;;;;5022714;28;20034;-68
2022/04/16 05:32:36;;;;;;;12.77;4.10;;;1.70;92.30;;;;;;5033457;28;20109;-68
2022/04/16 05:35:04;;;;;;;8.90;3.72;;;1.70;92.10;;;;;;5034041;28;20112;-68
2022/04/16 05:37:30;;;;;;;10.88;4.97;;;1.80;92.10;;;;;;5031489;28;20033;-68
2022/04/16 05:39:55;;;;;;;9.40;3.72;;;1.90;92.00;;;;;;5028348;28;20059;-68
2022/04/16 05:42:21;;;;;;;11.25;3.83;;;2.10;91.80;;;;;;5033539;28;20075;-68
2022/04/16 05:44:47;;;;;;;9.32;3.78;;;2.20;91.50;;;;;;5033524;28;20468;-68
2022/04/16 05:47:12;;;;;;;7.32;3.63;;;2.30;91.20;;;;;;5021723;28;20033;-69
2022/04/16 05:49:38;;;;;;;9.02;4.10;;;2.30;90.90;;;;;;5033478;28;20039;-69
2022/04/16 05:52:05;;;;;;;8.75;3.70;;;2.40;90.80;;;;;;5033593;28;20060;-69
2022/04/16 05:54:30;;;;;;;6.60;3.70;;;2.60;90.80;;;;;;5030319;28;20447;-68
2022/04/16 05:56:56;;;;;;;8.32;3.83;;;2.60;90.40;;;;;;5032928;28;20124;-69
2022/04/16 05:59:22;;;;;;;9.18;3.50;;;2.70;90.10;;;;;;5033673;28;20038;-68
2022/04/16 06:01:48;;;;;;;6.18;2.75;;;2.80;90.00;;;;;;5033791;28;20029;-69
2022/04/16 06:04:14;;;;;;;5.85;3.05;;;3.00;89.90;;;;;;5022304;28;20026;-69
2022/04/16 06:06:39;;;;;;;5.95;2.70;;;3.10;89.30;;;;;;5025537;28;20413;-68
2022/04/16 06:09:05;;;;;;;4.65;2.75;;;3.20;88.90;;;;;;5030606;28;20033;-68
2022/04/16 06:11:32;;;;;;;6.55;2.80;;;3.30;88.60;;;;;;5023596;28;20034;-68
2022/04/16 06:13:58;;;;;;;8.35;2.90;;;3.50;87.70;;;;;;5028236;28;20021;-69
2022/04/16 06:16:23;;;;;;;4.55;2.25;;;3.60;87.50;;;;;;5032975;28;20370;-70
2022/04/16 06:18:49;;;;;;;6.45;2.50;;;3.80;86.90;;;;;;5033388;28;20472;-69
2022/04/16 06:21:15;;;;;;;4.75;2.50;;;3.90;86.20;;;;;;5030905;28;20481;-69
2022/04/16 06:23:40;;;;;;;3.85;2.25;;;4.00;85.70;;;;;;5033276;28;20032;-69
2022/04/16 06:26:06;;;;;;;5.95;2.47;;;4.20;85.50;;;;;;5032726;28;20404;-69
2022/04/16 06:28:32;;;;;;;5.45;2.50;;;4.30;85.50;;;;;;5025890;28;20491;-69
2022/04/16 06:30:57;;;;;;;2.92;1.80;;;4.40;84.10;;;;;;5033001;28;20034;-69
2022/04/16 06:33:23;;;;;;;5.68;2.10;;;4.50;83.00;;;;;;5032764;28;20040;-69
2022/04/16 06:35:48;;;;;;;3.08;1.33;;;4.60;82.30;;;;;;5032409;28;20104;-69
2022/04/16 06:38:14;;;;;;;3.95;1.80;;;4.70;82.40;;;;;;5029320;28;20037;-69
2022/04/16 06:40:39;;;;;;;3.05;1.50;;;4.90;82.00;;;;;;5032629;28;20068;-69
2022/04/16 06:43:05;;;;;;;5.18;1.92;;;5.00;81.70;;;;;;5032810;28;20504;-69
2022/04/16 06:45:30;;;;;;;3.33;1.55;;;5.10;81.10;;;;;;5023339;28;20115;-70
2022/04/16 06:47:56;;;;;;;4.80;1.63;;;5.30;80.60;;;;;;5030783;28;20042;-69
2022/04/16 06:50:22;;;;;;;4.07;1.52;;;5.40;79.40;;;;;;5032680;28;20052;-72
2022/04/16 06:52:47;;;;;;;3.60;1.65;;;5.70;79.60;;;;;;5032394;28;20064;-72
2022/04/16 06:55:13;;;;;;;6.57;1.48;;;6.00;79.30;;;;;;5020036;28;20076;-69
2022/04/16 06:57:39;;;;;;;4.43;1.50;;;6.20;79.40;;;;;;5032350;28;20065;-69
2022/04/16 07:00:06;;;;;;;2.85;1.50;;;6.10;76.20;;;;;;5032287;28;20079;-69
2022/04/16 07:02:31;;;;;;;2.72;1.20;;;6.40;77.00;;;;;;5029141;28;20033;-69
2022/04/16 07:04:58;;;;;;;2.13;1.40;;;6.60;76.40;;;;;;5025450;28;20413;-69
2022/04/16 07:07:23;;;;;;;5.45;1.67;;;6.60;74.40;;;;;;5021360;28;20026;-69
2022/04/16 07:09:49;;;;;;;3.03;1.35;;;6.60;74.20;;;;;;5031300;28;20031;-69
2022/04/16 07:12:15;;;;;;;3.15;1.33;;;6.80;72.00;;;;;;5031068;28;20428;-69
2022/04/16 07:14:41;;;;;;;2.38;1.20;;;7.10;74.00;;;;;;5031971;28;20038;-69
2022/04/16 07:17:07;;;;;;;2.00;1.10;;;7.40;72.70;;;;;;5032076;28;20034;-69
2022/04/16 07:19:33;;;;;;;4.75;1.08;;;7.30;70.60;;;;;;5024380;28;20096;-69
2022/04/16 07:22:00;;;;;;;2.85;0.90;;;7.30;69.60;;;;;;5029955;28;20029;-69
2022/04/16 07:24:26;;;;;;;2.97;1.00;;;7.30;70.10;;;;;;5031266;28;20026;-69
2022/04/16 07:26:54;;;;;;;2.10;0.68;;;7.50;70.40;;;;;;5032210;28;20098;-69
2022/04/16 07:29:24;;;;;;;1.50;0.93;;;7.50;67.70;;;;;;5020225;28;20114;-69
2022/04/16 07:31:49;;;;;;;1.65;0.90;;;7.40;67.80;;;;;;5031654;28;20042;-71
2022/04/16 07:34:16;;;;;;;2.70;0.90;;;7.50;66.40;;;;;;5031922;28;20500;-69
2022/04/16 07:36:42;;;;;;;1.98;0.70;;;7.60;65.20;;;;;;5026175;28;20026;-69
2022/04/16 07:39:08;;;;;;;3.22;0.70;;;7.90;66.10;;;;;;5029861;28;20045;-69
2022/04/16 07:41:34;;;;;;;2.75;0.98;;;7.80;64.30;;;;;;5031255;28;20041;-69
2022/04/16 07:44:03;;;;;;;1.42;0.68;;;8.10;64.80;;;;;;5031250;28;20057;-69
2022/04/16 07:46:29;;;;;;;1.52;0.70;;;8.30;65.30;;;;;;5030047;28;20036;-69
2022/04/16 07:48:57;;;;;;;1.65;0.75;;;8.30;62.50;;;;;;5031004;28;20040;-69
2022/04/16 07:51:23;;;;;;;3.78;0.60;;;8.60;64.20;;;;;;5030968;28;20037;-69
2022/04/16 07:53:48;;;;;;;1.85;0.57;;;8.70;60.00;;;;;;5025185;28;20033;-69
2022/04/16 07:56:14;;;;;;;2.10;0.95;;;9.20;60.60;;;;;;5031725;28;20400;-69
2022/04/16 07:58:40;;;;;;;0.80;0.57;;;8.90;57.80;;;;;;5031508;28;20025;-69
2022/04/16 08:01:06;;;;;;;1.63;0.52;;;9.30;58.00;;;;;;5031080;28;20038;-69
2022/04/16 08:03:32;;;;;;;1.52;0.73;;;9.40;59.50;;;;;;5029583;28;20033;-69
2022/04/16 08:05:57;;;;;;;1.27;0.63;;;9.20;57.00;;;;;;5030771;28;20091;-69
2022/04/16 08:08:23;;;;;;;1.20;0.70;;;9.40;56.70;;;;;;5030953;28;20095;-69
2022/04/16 08:10:51;;;;;;;1.77;0.77;;;9.50;57.40;;;;;;5020898;28;20081;-69
2022/04/16 08:13:18;;;;;;;1.15;0.63;;;9.60;58.00;;;;;;5031322;28;20033;-69
2022/04/16 08:15:47;;;;;;;2.20;0.68;;;9.80;54.30;;;;;;5030950;28;20048;-69
2022/04/16 08:18:13;;;;;;;1.50;0.65;;;9.60;55.40;;;;;;5031015;28;20071;-69
2022/04/16 08:20:39;;;;;;;2.95;0.70;;;9.80;55.60;;;;;;5029778;28;20064;-73
2022/04/16 08:23:06;;;;;;;1.58;0.57;;;10.40;56.80;;;;;;5031171;28;20029;-69
2022/04/16 08:28:04;;;;;;;1.27;0.57;;;10.50;53.20;;;;;;5026323;28;20033;-70
2022/04/16 08:30:30;;;;;;;1.27;0.45;;;10.90;52.20;;;;;;5030907;28;20045;-70
2022/04/16 08:32:56;;;;;;;1.65;0.70;;;10.80;53.00;;;;;;5030541;28;20029;-71
2022/04/16 08:35:21;;;;;;;1.00;0.30;;;10.80;50.70;;;;;;5029976;28;20041;-70
2022/04/16 08:37:49;;;;;;;1.80;0.50;;;11.10;51.90;;;;;;5028057;28;20036;-69
2022/04/16 08:40:16;;;;;;;0.55;0.45;;;11.10;50.40;;;;;;5030170;28;20041;-69
2022/04/16 08:42:44;;;;;;;1.83;0.50;;;10.80;47.00;;;;;;5030742;28;20036;-69
2022/04/16 08:45:10;;;;;;;1.75;0.70;;;11.00;50.60;;;;;;5021957;28;20315;-71
2022/04/16 08:47:38;;;;;;;1.38;0.50;;;10.70;49.20;;;;;;5025477;28;20104;-73
2022/04/16 08:50:05;;;;;;;0.80;0.50;;;11.40;51.60;;;;;;5029722;28;20025;-72
2022/04/16 08:52:33;;;;;;;0.47;0.40;;;11.40;48.60;;;;;;5030605;28;20080;-69
2022/04/16 08:55:00;;;;;;;0.70;0.50;;;11.50;49.60;;;;;;5018210;28;20109;-70
2022/04/16 08:57:27;;;;;;;1.60;0.70;;;12.00;50.50;;;;;;5034886;28;20025;-69
2022/04/16 08:59:54;;;;;;;1.20;0.70;;;11.40;46.70;;;;;;5034328;28;20038;-69
2022/04/16 09:02:20;;;;;;;1.95;0.63;;;11.60;48.40;;;;;;5031585;28;20029;-69
2022/04/16 09:04:47;;;;;;;2.30;0.60;;;12.00;46.30;;;;;;5034085;28;20037;-67
2022/04/16 09:07:13;;;;;;;1.85;0.50;;;12.20;48.00;;;;;;5034546;28;20028;-68
2022/04/16 09:09:39;;;;;;;0.63;0.40;;;11.80;43.30;;;;;;5034161;28;20029;-67
2022/04/16 09:12:16;;;;;;;0.70;0.40;;;11.80;42.70;;;;;;5033592;28;20043;-67
2022/04/16 09:14:44;;;;;;;2.25;0.38;;;11.70;43.90;;;;;;5033766;28;20065;-67
2022/04/16 09:17:17;;;;;;;1.50;0.57;;;11.80;43.50;;;;;;5034848;28;20061;-67
2022/04/16 09:19:51;;;;;;;0.30;0.30;;;11.80;41.60;;;;;;5029056;28;20029;-67
2022/04/16 09:22:33;;;;;;;0.77;0.30;;;12.00;41.50;;;;;;5034092;28;20034;-67
2022/04/16 09:24:58;;;;;;;0.40;0.35;;;11.40;41.10;;;;;;5034143;28;20028;-67
2022/04/16 09:27:24;;;;;;;1.23;0.47;;;11.70;41.50;;;;;;5028031;28;20026;-68
2022/04/16 09:29:50;;;;;;;0.30;0.25;;;12.00;40.80;;;;;;5031000;28;20045;-67
2022/04/16 09:32:25;;;;;;;2.20;0.50;;;12.00;40.10;;;;;;5033893;28;20056;-67
2022/04/16 09:34:52;;;;;;;1.30;0.50;;;12.30;40.40;;;;;;5022864;28;20033;-67
2022/04/16 09:37:17;;;;;;;1.00;0.40;;;12.60;43.20;;;;;;5023124;28;20325;-67
2022/04/16 09:39:43;;;;;;;1.98;0.50;;;12.90;40.50;;;;;;5032410;28;20441;-70
2022/04/16 09:42:08;;;;;;;1.25;0.50;;;13.40;40.50;;;;;;5032948;28;20042;-69
2022/04/16 09:44:34;;;;;;;1.23;0.68;;;12.40;38.10;;;;;;5029645;28;20049;-69
2022/04/16 09:47:00;;;;;;;2.83;0.40;;;13.10;41.40;;;;;;5033953;28;20033;-69
2022/04/16 09:49:25;;;;;;;1.10;0.30;;;12.90;39.70;;;;;;5033291;28;20069;-69
2022/04/16 09:51:51;;;;;;;1.25;0.52;;;13.10;39.40;;;;;;5029146;28;20180;-70
2022/04/16 09:54:18;;;;;;;1.00;0.50;;;13.50;38.80;;;;;;5028550;28;20045;-69
2022/04/16 09:56:46;;;;;;;0.30;0.22;;;13.10;38.40;;;;;;5033248;28;20056;-69
2022/04/16 09:59:13;;;;;;;0.98;0.30;;;13.40;38.20;;;;;;5033243;28;20063;-70
2022/04/16 10:01:46;;;;;;;0.93;0.47;;;13.10;35.00;;;;;;5025316;28;20017;-69
2022/04/16 10:04:17;;;;;;;0.75;0.40;;;13.40;39.70;;;;;;5031993;28;20060;-69
2022/04/16 10:06:44;;;;;;;0.88;0.47;;;13.70;38.50;;;;;;5031136;28;20026;-73
2022/04/16 10:09:13;;;;;;;1.02;0.50;;;13.30;38.00;;;;;;5026215;28;20132;-70
2022/04/16 10:14:40;;;;;;;0.50;0.30;;;13.60;38.90;;;;;;5032802;28;20029;-67
2022/04/16 10:17:14;;;;;;;1.40;0.70;;;13.60;37.40;;;;;;5032381;28;20029;-67
2022/04/16 10:19:45;;;;;;;0.95;0.40;;;14.10;38.50;;;;;;5031783;28;20108;-71
2022/04/16 10:22:25;;;;;;;1.60;0.40;;;14.00;37.80;;;;;;5033122;28;20457;-67
2022/04/16 10:24:57;;;;;;;3.47;0.50;;;14.30;39.10;;;;;;5032805;28;20083;-67
2022/04/16 10:27:25;;;;;;;2.13;0.40;;;13.70;36.30;;;;;;5026826;28;20053;-67
2022/04/16 10:29:51;;;;;;;0.68;0.43;;;13.90;37.00;;;;;;5031847;28;20045;-67
2022/04/16 10:32:18;;;;;;;2.05;0.55;;;13.90;37.50;;;;;;5032587;28;20391;-68
2022/04/16 10:34:44;;;;;;;2.13;0.60;;;14.00;35.80;;;;;;5031993;28;20033;-68
2022/04/16 10:37:25;;;;;;;2.45;0.60;;;13.60;36.90;;;;;;5024000;28;20060;-67
2022/04/16 10:39:54;;;;;;;0.98;0.50;;;13.80;37.10;;;;;;5032753;28;20095;-68
2022/04/16 10:42:31;;;;;;;1.50;0.55;;;14.20;38.20;;;;;;5032207;28;20057;-70
2022/04/16 10:45:07;;;;;;;0.88;0.47;;;14.40;37.00;;;;;;5024314;28;20511;-68
2022/04/16 10:47:37;;;;;;;0.85;0.55;;;14.50;36.90;;;;;;5026866;28;20113;-68
2022/04/16 10:50:08;;;;;;;0.68;0.40;;;14.10;35.90;;;;;;5025680;28;20033;-68
2022/04/16 10:52:34;;;;;;;1.48;0.52;;;14.10;36.90;;;;;;5031461;28;20037;-71
2022/04/16 10:55:01;;;;;;;2.05;0.68;;;14.20;37.10;;;;;;5031895;28;20112;-68
2022/04/16 10:57:27;;;;;;;1.88;0.70;;;14.60;37.20;;;;;;5032260;28;20116;-68
2022/04/16 10:59:59;;;;;;;1.98;0.50;;;14.00;38.20;;;;;;5028297;28;20164;-68
2022/04/16 11:02:30;;;;;;;1.20;0.50;;;14.30;38.80;;;;;;5018244;28;20064;-68
2022/04/16 11:05:02;;;;;;;;;;;14.50;37.10;;;;;;5031167;28;20394;-69
2022/04/16 11:07:29;;;;;;;0.82;0.65;;;14.20;35.00;;;;;;5031931;28;19909;-69
2022/04/16 11:09:56;;;;;;;1.88;0.50;;;14.70;38.30;;;;;;5031514;28;20045;-68
2022/04/16 11:12:23;;;;;;;3.28;0.82;;;14.60;39.10;;;;;;5032164;28;20116;-69
2022/04/16 11:14:50;;;;;;;1.48;0.55;;;15.00;38.00;;;;;;5032001;28;20411;-69
2022/04/16 11:17:17;;;;;;;1.60;0.70;;;15.00;38.50;;;;;;5024709;28;20037;-69
2022/04/16 11:19:44;;;;;;;0.75;0.50;;;15.30;40.60;;;;;;5032677;28;20083;-69
2022/04/16 11:22:13;;;;;;;1.98;0.50;;;15.40;36.20;;;;;;5031244;28;20064;-69
2022/04/16 11:24:39;;;;;;;2.15;0.50;;;15.60;37.50;;;;;;5032117;28;20048;-69
2022/04/16 11:35:24;;;;;;;1.42;0.40;;;16.60;35.00;;;;;;5022546;28;20024;-70
2022/04/16 11:37:53;;;;;;;3.63;0.60;;;16.30;35.60;;;;;;5031278;28;20021;-69
2022/04/16 11:40:19;;;;;;;0.80;0.32;;;16.70;34.60;;;;;;5031877;28;20104;-69
2022/04/16 11:42:45;;;;;;;0.73;0.30;;;16.60;33.80;;;;;;5030216;28;20160;-69
2022/04/16 11:45:10;;;;;;;1.63;0.40;;;16.50;34.00;;;;;;5029346;28;20536;-69
2022/04/16 11:47:37;;;;;;;0.73;0.32;;;16.00;33.70;;;;;;5031568;28;20029;-69
2022/04/16 11:50:06;;;;;;;1.83;0.40;;;16.20;33.70;;;;;;5029986;28;20079;-70
2022/04/16 11:52:33;;;;;;;1.70;0.60;;;16.50;33.50;;;;;;5025393;28;20392;-68
2022/04/16 11:55:06;;;;;;;0.45;0.30;;;16.60;31.40;;;;;;5031202;28;20147;-70
2022/04/16 11:57:33;;;;;;;2.47;0.60;;;17.00;32.80;;;;;;5031884;28;20030;-69
2022/04/16 12:00:04;;;;;;;1.95;0.60;;;17.00;32.90;;;;;;5025484;28;20018;-68
2022/04/16 12:02:38;;;;;;;2.53;0.60;;;17.20;33.00;;;;;;5024885;28;20030;-68
2022/04/16 12:05:26;;;;;;;1.38;0.70;;;16.80;32.90;;;;;;5029784;28;20112;-69
2022/04/16 12:07:53;;;;;;;1.08;0.35;;;16.90;30.70;;;;;;5028599;28;20544;-68
2022/04/16 12:10:19;;;;;;;1.10;0.60;;;17.30;32.60;;;;;;5031516;28;20044;-68
2022/04/16 12:12:49;;;;;;;0.80;0.40;;;18.10;34.20;;;;;;5030360;28;20029;-69
2022/04/16 12:15:29;;;;;;;1.17;0.50;;;18.40;32.60;;;;;;5030782;28;20083;-69
2022/04/16 12:17:57;;;;;;;2.80;0.50;;;17.70;32.60;;;;;;5028157;28;20124;-69
2022/04/16 12:20:23;;;;;;;1.20;0.40;;;17.50;32.60;;;;;;5030241;28;20444;-69
2022/04/16 12:22:56;;;;;;;1.08;0.60;;;18.50;33.30;;;;;;5029610;28;20025;-69
2022/04/16 12:25:23;;;;;;;1.83;0.52;;;18.10;29.70;;;;;;5027098;28;20034;-70
2022/04/16 12:27:54;;;;;;;0.50;0.50;;;18.10;31.50;;;;;;5030679;28;20113;-69
2022/04/16 12:30:24;;;;;;;1.55;0.50;;;18.00;31.10;;;;;;5030990;28;20029;-69
2022/04/16 12:33:11;;;;;;;0.90;0.50;;;18.50;33.00;;;;;;5030702;28;20040;-69
2022/04/16 12:35:44;;;;;;;1.48;0.45;;;17.80;31.90;;;;;;5029564;28;20481;-69
2022/04/16 12:38:14;;;;;;;1.38;0.43;;;17.90;30.80;;;;;;5031008;28;20567;-69
2022/04/16 12:40:41;;;;;;;2.78;0.60;;;18.50;30.20;;;;;;5030767;28;20072;-69
2022/04/16 12:43:07;;;;;;;1.42;0.30;;;18.60;30.20;;;;;;5020506;28;20499;-69
2022/04/16 12:45:33;;;;;;;0.65;0.50;;;18.60;32.40;;;;;;5030757;28;20021;-70
2022/04/16 12:47:58;;;;;;;0.95;0.50;;;18.50;30.60;;;;;;5026349;28;20038;-69
2022/04/16 12:50:26;;;;;;;1.92;0.47;;;18.40;29.10;;;;;;5030704;28;20625;-69
2022/04/16 12:52:52;;;;;;;2.00;0.50;;;18.80;28.60;;;;;;5030375;28;20112;-68
2022/04/16 12:55:17;;;;;;;1.15;0.28;;;19.10;29.20;;;;;;5030566;28;20104;-69
2022/04/16 12:57:44;;;;;;;1.58;0.40;;;18.90;27.70;;;;;;5030651;28;20033;-72
2022/04/16 13:00:11;;;;;;;1.98;0.50;;;18.80;28.80;;;;;;5017643;28;20385;-70
2022/04/16 13:02:40;;;;;;;4.07;0.43;;;19.10;28.00;;;;;;5030476;28;20032;-69
2022/04/16 13:05:07;;;;;;;1.23;0.50;;;19.10;29.10;;;;;;5030083;28;20066;-69
2022/04/16 13:07:33;;;;;;;1.45;0.50;;;18.20;30.20;;;;;;5030541;28;20026;-69
2022/04/16 13:09:59;;;;;;;1.48;0.50;;;18.20;27.80;;;;;;5025510;28;20041;-69
2022/04/16 13:12:25;;;;;;;1.63;0.40;;;19.20;29.20;;;;;;5029824;28;20060;-69
2022/04/16 13:14:51;;;;;;;1.10;0.60;;;18.40;31.10;;;;;;5030670;28;20048;-69
2022/04/16 13:17:16;;;;;;;1.15;0.40;;;19.10;30.60;;;;;;5018136;28;20036;-69